createdAt,value
2022-08-07T00:00:44.401Z,100703.00
2022-08-07T00:02:41.101Z,100702.20
2022-08-07T00:02:57.217Z,100703.33
2022-08-07T00:04:00.309Z,100698.05
2022-08-07T00:05:06.057Z,100697.50
2022-08-07T00:06:10.122Z,100695.04
2022-08-07T00:07:13.798Z,100704.51
2022-08-07T00:08:19.592Z,100706.75
2022-08-07T00:09:29.172Z,100702.63
2022-08-07T00:10:30.401Z,100701.79
2022-08-07T00:11:34.125Z,100696.52
2022-08-07T00:12:43.640Z,100705.97
2022-08-07T00:13:45.590Z,100696.28
2022-08-07T00:14:49.471Z,100704.09
2022-08-07T00:15:53.128Z,100699.36
2022-08-07T00:16:58.094Z,100711.59
2022-08-07T00:18:01.164Z,100700.76
2022-08-07T00:19:06.052Z,100691.61
2022-08-07T00:20:11.043Z,100698.30
2022-08-07T00:21:56.592Z,100700.25
2022-08-07T00:22:24.884Z,100691.91
2022-08-07T00:23:28.505Z,100702.20
2022-08-07T00:24:31.768Z,100701.36
2022-08-07T00:25:41.159Z,100700.81
2022-08-07T00:26:58.926Z,100701.97
2022-08-07T00:27:52.136Z,100700.30
2022-08-07T00:28:55.335Z,100706.16
2022-08-07T00:29:55.189Z,100696.44
2022-08-07T00:30:58.420Z,100698.70
2022-08-07T00:32:02.940Z,100702.59
2022-08-07T00:33:07.918Z,100700.10
2022-08-07T00:34:10.775Z,100695.66
2022-08-07T00:35:13.867Z,100705.98
2022-08-07T00:36:19.351Z,100704.31
2022-08-07T00:37:22.647Z,100707.39
2022-08-07T00:38:31.656Z,100702.94
2022-08-07T00:39:31.039Z,100701.28
2022-08-07T00:40:39.687Z,100704.38
2022-08-07T00:41:45.361Z,100702.70
2022-08-07T00:42:44.708Z,100701.05
2022-08-07T00:43:59.053Z,100706.06
2022-08-07T00:44:54.632Z,100698.03
2022-08-07T00:45:58.817Z,100697.48
2022-08-07T00:47:02.765Z,100697.48
2022-08-07T00:48:11.036Z,100701.38
2022-08-07T00:49:24.808Z,100706.11
2022-08-07T00:50:43.631Z,100706.43
2022-08-07T00:51:27.915Z,100702.81
2022-08-07T00:52:33.243Z,100703.94
2022-08-07T00:53:39.367Z,100707.83
2022-08-07T00:54:40.932Z,100698.66
2022-08-07T00:56:02.401Z,100703.39
2022-08-07T00:56:49.844Z,100703.39
2022-08-07T00:57:55.706Z,100700.92
2022-08-07T00:58:58.870Z,100703.70
2022-08-07T01:00:07.688Z,100699.26
2022-08-07T01:01:11.360Z,100696.48
2022-08-07T01:02:29.178Z,100704.81
2022-08-07T01:03:19.324Z,100703.98
2022-08-07T01:04:24.964Z,100696.77
2022-08-07T01:05:29.286Z,100703.44
2022-08-07T01:06:33.262Z,100704.55
2022-08-07T01:07:39.245Z,100694.58
2022-08-07T01:08:51.443Z,100704.00
2022-08-07T01:10:06.280Z,100698.73
2022-08-07T01:10:56.362Z,100700.67
2022-08-07T01:12:23.477Z,100695.40
2022-08-07T01:13:03.534Z,100700.12
2022-08-07T01:14:08.864Z,100698.50
2022-08-07T01:15:17.626Z,100702.39
2022-08-07T01:16:30.360Z,100699.06
2022-08-07T01:17:25.131Z,100701.01
2022-08-07T01:18:30.478Z,100702.13
2022-08-07T01:19:38.344Z,100700.49
2022-08-07T01:20:44.509Z,100694.94
2022-08-07T01:21:53.487Z,100701.32
2022-08-07T01:23:00.653Z,100700.77
2022-08-07T01:24:03.060Z,100703.00
2022-08-07T01:25:54.328Z,100706.62
2022-08-07T01:26:17.549Z,100708.56
2022-08-07T01:27:23.110Z,100705.27
2022-08-07T01:28:29.673Z,100703.60
2022-08-07T01:29:34.275Z,100703.88
2022-08-07T01:30:39.555Z,100708.61
2022-08-07T01:31:46.162Z,100708.61
2022-08-07T01:32:50.420Z,100715.59
2022-08-07T01:33:55.759Z,100713.93
2022-08-07T01:35:00.586Z,100712.27
2022-08-07T01:36:07.598Z,100715.33
2022-08-07T01:37:15.862Z,100714.49
2022-08-07T01:38:25.055Z,100715.64
2022-08-07T01:39:40.387Z,100720.36
2022-08-07T01:40:34.715Z,100712.86
2022-08-07T01:41:40.688Z,100710.08
2022-08-07T01:42:58.793Z,100703.97
2022-08-07T01:43:49.979Z,100712.59
2022-08-07T01:44:53.555Z,100710.09
2022-08-07T01:45:58.634Z,100705.68
2022-08-07T01:48:16.674Z,100712.35
2022-08-07T01:48:20.529Z,100709.57
2022-08-07T01:49:12.443Z,100714.30
2022-08-07T01:50:28.558Z,100714.30
2022-08-07T01:52:01.852Z,100710.69
2022-08-07T01:52:31.389Z,100707.08
2022-08-07T01:54:08.869Z,100712.91
2022-08-07T01:54:45.061Z,100712.08
2022-08-07T01:55:53.812Z,100702.11
2022-08-07T01:57:20.438Z,100713.50
2022-08-07T01:58:29.132Z,100707.12
2022-08-07T01:59:31.107Z,100705.45
2022-08-07T02:00:45.359Z,100705.77
2022-08-07T02:02:02.053Z,100707.71
2022-08-07T02:03:12.310Z,100703.27
2022-08-07T02:04:15.537Z,100706.05
2022-08-07T02:05:47.865Z,100704.66
2022-08-07T02:06:35.562Z,100708.55
2022-08-07T02:07:51.392Z,100708.86
2022-08-07T02:09:11.712Z,100706.37
2022-08-07T02:10:20.632Z,100703.34
2022-08-07T02:12:03.038Z,100701.68
2022-08-07T02:12:35.605Z,100707.23
2022-08-07T02:13:56.393Z,100704.73
2022-08-07T02:14:50.990Z,100699.47
2022-08-07T02:15:59.355Z,100709.73
2022-08-07T02:17:06.189Z,100703.39
2022-08-07T02:18:12.791Z,100704.50
2022-08-07T02:20:07.470Z,100714.49
2022-08-07T02:20:24.152Z,100712.83
2022-08-07T02:21:55.820Z,100720.05
2022-08-07T02:22:41.375Z,100712.83
2022-08-07T02:23:47.321Z,100714.77
2022-08-07T02:24:54.207Z,100706.44
2022-08-07T02:26:31.905Z,100711.16
2022-08-07T02:27:04.859Z,100718.66
2022-08-07T02:28:08.961Z,100717.83
2022-08-07T02:29:14.431Z,100716.16
2022-08-07T02:30:20.524Z,100718.94
2022-08-07T02:31:29.065Z,100717.27
2022-08-07T02:32:30.342Z,100714.50
2022-08-07T02:34:01.742Z,100718.11
2022-08-07T02:34:48.834Z,100715.33
2022-08-07T02:36:30.336Z,100718.42
2022-08-07T02:36:57.442Z,100713.14
2022-08-07T02:38:04.523Z,100723.42
2022-08-07T02:39:16.082Z,100722.59
2022-08-07T02:40:35.152Z,100717.86
2022-08-07T02:41:21.799Z,100724.25
2022-08-07T02:42:25.714Z,100720.36
2022-08-07T02:43:29.710Z,100723.14
2022-08-07T02:44:36.454Z,100719.53
2022-08-07T02:46:01.585Z,100723.14
2022-08-07T02:46:52.790Z,100725.08
2022-08-07T02:47:54.356Z,100719.53
2022-08-07T02:48:57.703Z,100729.53
2022-08-07T02:50:00.926Z,100715.64
2022-08-07T02:51:28.955Z,100722.30
2022-08-07T02:52:32.263Z,100720.36
2022-08-07T02:53:38.291Z,100719.53
2022-08-07T02:54:41.102Z,100720.64
2022-08-07T02:56:03.518Z,100716.20
2022-08-07T02:56:54.941Z,100722.59
2022-08-07T02:58:02.267Z,100722.59
2022-08-07T02:59:09.109Z,100714.25
2022-08-07T03:00:15.191Z,100719.53
2022-08-07T03:01:36.455Z,100723.97
2022-08-07T03:02:27.669Z,100723.14
2022-08-07T03:03:49.930Z,100729.22
2022-08-07T03:04:40.792Z,100730.88
2022-08-07T03:05:45.266Z,100728.94
2022-08-07T03:06:50.169Z,100724.22
2022-08-07T03:08:07.795Z,100733.66
2022-08-07T03:09:04.256Z,100730.05
2022-08-07T03:10:09.726Z,100728.11
2022-08-07T03:11:14.341Z,100726.16
2022-08-07T03:12:22.521Z,100730.88
2022-08-07T03:13:25.021Z,100731.71
2022-08-07T03:14:30.388Z,100733.38
2022-08-07T03:15:55.985Z,100721.44
2022-08-07T03:16:40.523Z,100722.27
2022-08-07T03:17:53.598Z,100727.83
2022-08-07T03:18:52.115Z,100728.66
2022-08-07T03:19:56.173Z,100729.49
2022-08-07T03:21:02.577Z,100721.99
2022-08-07T03:22:06.803Z,100727.55
2022-08-07T03:23:18.945Z,100722.52
2022-08-07T03:24:19.283Z,100720.57
2022-08-07T03:25:22.893Z,100726.67
2022-08-07T03:26:31.371Z,100726.40
2022-08-07T03:27:59.047Z,100721.64
2022-08-07T03:28:41.850Z,100722.48
2022-08-07T03:29:51.220Z,100719.70
2022-08-07T03:30:59.252Z,100721.64
2022-08-07T03:32:08.394Z,100724.42
2022-08-07T03:33:15.037Z,100719.70
2022-08-07T03:34:22.547Z,100720.53
2022-08-07T03:35:27.419Z,100722.48
2022-08-07T03:36:34.045Z,100726.92
2022-08-07T03:37:46.294Z,100722.20
2022-08-07T03:38:45.288Z,100724.70
2022-08-07T03:39:59.615Z,100731.08
2022-08-07T03:40:57.375Z,100725.22
2022-08-07T03:42:03.448Z,100725.77
2022-08-07T03:43:13.787Z,100728.55
2022-08-07T03:44:15.355Z,100725.49
2022-08-07T03:45:31.035Z,100730.77
2022-08-07T03:46:28.507Z,100724.06
2022-08-07T03:47:47.896Z,100732.40
2022-08-07T03:49:02.231Z,100733.23
2022-08-07T03:49:51.989Z,100723.78
2022-08-07T03:50:55.992Z,100722.67
2022-08-07T03:52:01.445Z,100725.17
2022-08-07T03:53:03.520Z,100725.69
2022-08-07T03:54:36.484Z,100730.97
2022-08-07T03:55:13.645Z,100721.20
2022-08-07T03:56:33.290Z,100722.88
2022-08-07T03:58:33.923Z,100725.37
2022-08-07T03:59:08.891Z,100725.37
2022-08-07T03:59:46.402Z,100728.70
2022-08-07T04:00:54.909Z,100724.49
2022-08-07T04:01:55.870Z,100728.11
2022-08-07T04:03:04.162Z,100717.82
2022-08-07T04:04:07.712Z,100727.82
2022-08-07T04:05:12.591Z,100731.95
2022-08-07T04:06:38.024Z,100728.06
2022-08-07T04:07:22.985Z,100727.78
2022-08-07T04:08:27.143Z,100727.50
2022-08-07T04:09:38.067Z,100727.19
2022-08-07T04:10:40.007Z,100723.29
2022-08-07T04:12:23.605Z,100727.45
2022-08-07T04:12:51.511Z,100729.92
2022-08-07T04:14:10.700Z,100726.86
2022-08-07T04:15:02.329Z,100724.63
2022-08-07T04:16:10.867Z,100726.29
2022-08-07T04:17:20.418Z,100719.30
2022-08-07T04:18:56.633Z,100716.23
2022-08-07T04:19:25.287Z,100722.63
2022-08-07T04:20:30.931Z,100714.84
2022-08-07T04:21:35.529Z,100714.84
2022-08-07T04:22:40.094Z,100706.22
2022-08-07T04:24:05.687Z,100705.65
2022-08-07T04:24:52.315Z,100710.06
2022-08-07T04:25:56.745Z,100712.56
2022-08-07T04:27:02.446Z,100706.71
2022-08-07T04:28:09.718Z,100710.02
2022-08-07T04:29:14.929Z,100705.00
2022-08-07T04:30:44.044Z,100706.38
2022-08-07T04:31:39.253Z,100708.01
2022-08-07T04:32:35.184Z,100710.22
2022-08-07T04:33:39.877Z,100711.56
2022-08-07T04:34:43.293Z,100716.02
2022-08-07T04:35:50.993Z,100711.00
2022-08-07T04:36:53.549Z,100710.71
2022-08-07T04:38:03.489Z,100711.23
2022-08-07T04:39:02.756Z,100715.67
2022-08-07T04:40:07.191Z,100719.00
2022-08-07T04:41:19.034Z,100717.28
2022-08-07T04:42:17.650Z,100718.11
2022-08-07T04:44:10.532Z,100715.88
2022-08-07T04:44:32.359Z,100720.84
2022-08-07T04:46:01.290Z,100724.39
2022-08-07T04:49:47.368Z,100712.80
2022-08-07T04:51:18.316Z,100720.98
2022-08-07T04:52:27.489Z,100722.61
2022-08-07T04:54:05.734Z,100714.80
2022-08-07T04:58:13.247Z,100710.02
2022-08-07T04:58:24.121Z,100715.45
2022-08-07T04:59:17.073Z,100722.48
2022-08-07T05:00:18.857Z,100723.03
2022-08-07T05:01:19.378Z,100721.63
2022-08-07T05:02:50.291Z,100726.58
2022-08-07T05:04:07.985Z,100724.38
2022-08-07T05:05:11.548Z,100720.15
2022-08-07T05:06:20.122Z,100722.93
2022-08-07T05:07:48.466Z,100720.98
2022-08-07T05:09:06.236Z,100715.95
2022-08-07T05:10:14.970Z,100721.75
2022-08-07T05:11:57.476Z,100720.34
2022-08-07T05:12:46.207Z,100713.33
2022-08-07T05:14:52.563Z,100722.22
2022-08-07T05:15:23.400Z,100723.56
2022-08-07T05:16:25.290Z,100721.32
2022-08-07T05:17:52.319Z,100719.91
2022-08-07T05:18:51.119Z,100711.23
2022-08-07T05:19:55.941Z,100710.66
2022-08-07T05:21:05.420Z,100719.52
2022-08-07T05:22:12.753Z,100717.27
2022-08-07T05:23:23.081Z,100709.14
2022-08-07T05:24:30.405Z,100711.63
2022-08-07T05:25:54.635Z,100724.14
2022-08-07T05:26:40.518Z,100714.34
2022-08-07T05:28:16.473Z,100712.39
2022-08-07T05:28:55.666Z,100719.33
2022-08-07T05:30:02.056Z,100721.50
2022-08-07T05:31:06.892Z,100717.59
2022-08-07T05:32:11.434Z,100711.41
2022-08-07T05:33:15.329Z,100711.11
2022-08-07T05:34:21.571Z,100717.22
2022-08-07T05:35:33.388Z,100716.90
2022-08-07T05:36:35.755Z,100713.82
2022-08-07T05:37:40.823Z,100715.19
2022-08-07T05:38:58.262Z,100719.31
2022-08-07T05:40:05.414Z,100716.23
2022-08-07T05:40:57.380Z,100719.56
2022-08-07T05:42:05.341Z,100715.62
2022-08-07T05:43:06.272Z,100722.59
2022-08-07T05:44:13.131Z,100719.52
2022-08-07T05:45:28.269Z,100727.25
2022-08-07T05:46:26.452Z,100723.34
2022-08-07T05:47:38.706Z,100726.67
2022-08-07T05:48:59.030Z,100726.05
2022-08-07T05:49:46.958Z,100717.39
2022-08-07T05:50:52.523Z,100725.45
2022-08-07T05:51:55.756Z,100715.65
2022-08-07T05:53:01.330Z,100722.59
2022-08-07T05:54:09.429Z,100725.05
2022-08-07T05:55:10.502Z,100717.23
2022-08-07T05:56:19.864Z,100719.72
2022-08-07T05:57:30.148Z,100713.52
2022-08-07T05:58:36.654Z,100723.25
2022-08-07T05:59:55.851Z,100723.75
2022-08-07T06:00:51.106Z,100717.05
2022-08-07T06:01:57.849Z,100728.41
2022-08-07T06:03:04.888Z,100720.59
2022-08-07T06:04:10.665Z,100725.87
2022-08-07T06:05:16.856Z,100718.84
2022-08-07T06:06:24.329Z,100727.73
2022-08-07T06:08:14.949Z,100715.16
2022-08-07T06:08:38.127Z,100717.62
2022-08-07T06:10:04.157Z,100718.16
2022-08-07T06:10:46.554Z,100719.48
2022-08-07T06:11:51.636Z,100725.59
2022-08-07T06:12:56.929Z,100720.55
2022-08-07T06:14:13.785Z,100718.27
2022-08-07T06:15:06.902Z,100725.20
2022-08-07T06:16:13.508Z,100723.45
2022-08-07T06:17:18.483Z,100723.45
2022-08-07T06:18:22.585Z,100728.44
2022-08-07T06:19:51.858Z,100722.53
2022-08-07T06:20:51.139Z,100726.71
2022-08-07T06:22:14.941Z,100718.84
2022-08-07T06:23:02.496Z,100718.25
2022-08-07T06:24:45.990Z,100718.78
2022-08-07T06:25:05.048Z,100721.24
2022-08-07T06:26:12.392Z,100707.83
2022-08-07T06:27:59.657Z,100713.94
2022-08-07T06:28:29.147Z,100711.64
2022-08-07T06:29:33.671Z,100709.39
2022-08-07T06:30:42.668Z,100719.91
2022-08-07T06:31:49.597Z,100712.61
2022-08-07T06:32:50.132Z,100712.61
2022-08-07T06:33:53.987Z,100715.89
2022-08-07T06:35:00.145Z,100718.09
2022-08-07T06:36:11.983Z,100721.37
2022-08-07T06:37:11.358Z,100721.91
2022-08-07T06:38:20.064Z,100723.23
2022-08-07T06:40:13.351Z,100715.39
2022-08-07T06:40:35.150Z,100719.20
2022-08-07T06:42:00.658Z,100721.40
2022-08-07T06:42:48.434Z,100721.40
2022-08-07T06:44:01.406Z,100721.09
2022-08-07T06:45:02.975Z,100719.63
2022-08-07T06:46:06.339Z,100713.75
2022-08-07T06:47:12.421Z,100708.06
2022-08-07T06:48:24.743Z,100708.06
2022-08-07T06:49:21.733Z,100711.34
2022-08-07T06:50:25.465Z,100708.78
2022-08-07T06:51:33.421Z,100714.86
2022-08-07T06:52:41.571Z,100716.22
2022-08-07T06:55:30.085Z,100707.56
2022-08-07T06:55:33.100Z,100708.89
2022-08-07T06:56:02.421Z,100713.34
2022-08-07T06:57:09.028Z,100714.89
2022-08-07T06:58:16.581Z,100714.89
2022-08-07T07:00:11.707Z,100710.66
2022-08-07T07:00:42.654Z,100710.02
2022-08-07T07:01:50.912Z,100708.89
2022-08-07T07:02:58.043Z,100709.39
2022-08-07T07:04:07.008Z,100701.53
2022-08-07T07:05:04.136Z,100699.27
2022-08-07T07:06:10.960Z,100709.80
2022-08-07T07:07:58.448Z,100706.70
2022-08-07T07:08:29.282Z,100702.43
2022-08-07T07:09:33.389Z,100705.75
2022-08-07T07:10:38.639Z,100705.14
2022-08-07T07:12:07.849Z,100698.08
2022-08-07T07:12:56.029Z,100710.61
2022-08-07T07:14:02.358Z,100709.97
2022-08-07T07:15:24.038Z,100703.73
2022-08-07T07:16:27.484Z,100704.26
2022-08-07T07:17:39.556Z,100703.64
2022-08-07T07:18:48.782Z,100705.27
2022-08-07T07:19:59.138Z,100696.27
2022-08-07T07:21:13.641Z,100699.56
2022-08-07T07:22:36.673Z,100704.53
2022-08-07T07:24:08.317Z,100708.66
2022-08-07T07:24:34.552Z,100708.04
2022-08-07T07:26:34.087Z,100708.59
2022-08-07T07:26:49.661Z,100701.00
2022-08-07T07:28:02.563Z,100706.28
2022-08-07T07:29:56.427Z,100707.95
2022-08-07T07:30:12.973Z,100698.11
2022-08-07T07:31:39.877Z,100704.19
2022-08-07T07:32:39.853Z,100701.61
2022-08-07T07:33:54.975Z,100698.48
2022-08-07T07:34:53.410Z,100706.55
2022-08-07T07:36:05.480Z,100706.73
2022-08-07T07:37:22.160Z,100709.74
2022-08-07T07:38:12.940Z,100712.20
2022-08-07T07:39:18.244Z,100708.78
2022-08-07T07:40:26.148Z,100706.47
2022-08-07T07:41:50.646Z,100699.44
2022-08-07T07:42:37.276Z,100702.75
2022-08-07T07:44:13.968Z,100706.86
2022-08-07T07:44:49.889Z,100702.62
2022-08-07T07:46:40.342Z,100707.56
2022-08-07T07:47:14.098Z,100709.22
2022-08-07T07:48:07.626Z,100707.77
2022-08-07T07:50:31.616Z,100710.22
2022-08-07T07:50:35.098Z,100705.97
2022-08-07T07:51:29.507Z,100707.63
2022-08-07T07:52:36.191Z,100701.38
2022-08-07T07:53:52.716Z,100696.31
2022-08-07T07:54:51.385Z,100703.22
2022-08-07T07:56:00.881Z,100696.48
2022-08-07T07:57:06.381Z,100696.17
2022-08-07T07:58:10.466Z,100699.14
2022-08-07T07:59:14.133Z,100705.28
2022-08-07T08:00:29.146Z,100701.00
2022-08-07T08:02:02.086Z,100699.23
2022-08-07T08:02:35.650Z,100700.55
2022-08-07T08:04:09.697Z,100701.89
2022-08-07T08:04:47.209Z,100706.83
2022-08-07T08:05:54.986Z,100698.13
2022-08-07T08:07:00.715Z,100701.09
2022-08-07T08:08:05.786Z,100699.95
2022-08-07T08:09:12.470Z,100702.09
2022-08-07T08:10:35.696Z,100695.03
2022-08-07T08:11:47.202Z,100693.89
2022-08-07T08:12:52.627Z,100697.17
2022-08-07T08:13:50.810Z,100698.83
2022-08-07T08:14:47.546Z,100701.31
2022-08-07T08:15:58.340Z,100702.66
2022-08-07T08:17:14.023Z,100700.66
2022-08-07T08:18:17.593Z,100702.83
2022-08-07T08:20:16.237Z,100694.11
2022-08-07T08:20:27.319Z,100704.97
2022-08-07T08:22:00.518Z,100699.88
2022-08-07T08:23:14.565Z,100691.99
2022-08-07T08:24:44.933Z,100690.81
2022-08-07T08:26:06.691Z,100696.10
2022-08-07T08:27:09.372Z,100697.45
2022-08-07T08:28:16.833Z,100694.30
2022-08-07T08:29:21.637Z,100692.01
2022-08-07T08:30:25.415Z,100695.64
2022-08-07T08:32:16.870Z,100694.18
2022-08-07T08:32:48.688Z,100694.66
2022-08-07T08:33:55.675Z,100687.63
2022-08-07T08:35:01.071Z,100687.28
2022-08-07T08:36:07.017Z,100693.39
2022-08-07T08:37:59.272Z,100685.30
2022-08-07T08:38:21.235Z,100683.84
2022-08-07T08:39:39.314Z,100682.35
2022-08-07T08:40:43.781Z,100688.46
2022-08-07T08:41:57.898Z,100684.20
2022-08-07T08:43:22.088Z,100686.66
2022-08-07T08:44:44.434Z,100676.78
2022-08-07T08:46:00.814Z,100675.80
2022-08-07T08:47:28.935Z,100671.85
2022-08-07T08:48:38.534Z,100679.27
2022-08-07T08:50:04.855Z,100674.17
2022-08-07T08:51:26.099Z,100681.08
2022-08-07T08:52:30.379Z,100683.56
2022-08-07T08:55:21.155Z,100677.80
2022-08-07T08:56:30.345Z,100675.00
2022-08-07T08:57:36.799Z,100677.48
2022-08-07T08:58:50.414Z,100671.52
2022-08-07T09:00:08.425Z,100676.81
2022-08-07T09:01:39.720Z,100682.92
2022-08-07T09:02:53.939Z,100668.59
2022-08-07T09:04:18.673Z,100673.84
2022-08-07T09:05:37.162Z,100667.92
2022-08-07T09:06:47.747Z,100665.62
2022-08-07T09:07:58.893Z,100667.75
2022-08-07T09:09:29.906Z,100661.00
2022-08-07T09:10:36.640Z,100659.02
2022-08-07T09:11:53.300Z,100661.47
2022-08-07T09:13:08.776Z,100655.07
2022-08-07T09:14:34.685Z,100656.69
2022-08-07T09:16:25.606Z,100661.66
2022-08-07T09:17:58.665Z,100658.20
2022-08-07T09:18:53.157Z,100658.72
2022-08-07T09:19:57.027Z,100662.03
2022-08-07T09:21:57.705Z,100656.89
2022-08-07T09:24:32.199Z,100663.00
2022-08-07T09:24:53.623Z,100664.66
2022-08-07T09:25:17.284Z,100664.66
2022-08-07T09:26:23.001Z,100655.89
2022-08-07T09:28:00.200Z,100660.03
2022-08-07T09:30:04.215Z,100657.23
2022-08-07T09:30:04.373Z,100652.12
2022-08-07T09:31:23.995Z,100659.36
2022-08-07T09:32:56.372Z,100656.23
2022-08-07T09:34:12.462Z,100655.58
2022-08-07T09:36:03.238Z,100659.69
2022-08-07T09:37:00.743Z,100662.99
2022-08-07T09:38:13.467Z,100663.97
2022-08-07T09:39:55.212Z,100664.12
2022-08-07T09:40:50.173Z,100663.80
2022-08-07T09:42:17.065Z,100659.52
2022-08-07T09:44:03.348Z,100664.45
2022-08-07T09:47:24.790Z,100662.29
2022-08-07T09:47:49.690Z,100664.59
2022-08-07T09:47:55.970Z,100658.00
2022-08-07T09:50:01.909Z,100658.48
2022-08-07T09:50:34.128Z,100662.11
2022-08-07T09:52:16.435Z,100664.59
2022-08-07T09:52:51.752Z,100664.27
2022-08-07T09:54:02.296Z,100655.84
2022-08-07T09:55:28.872Z,100659.12
2022-08-07T09:56:46.388Z,100665.23
2022-08-07T09:58:11.566Z,100655.66
2022-08-07T09:59:37.109Z,100661.45
2022-08-07T10:00:55.116Z,100655.52
2022-08-07T10:02:10.869Z,100664.77
2022-08-07T10:04:03.717Z,100662.42
2022-08-07T10:05:13.749Z,100664.08
2022-08-07T10:06:37.315Z,100660.44
2022-08-07T10:07:59.247Z,100651.70
2022-08-07T10:09:15.522Z,100645.26
2022-08-07T10:11:17.043Z,100661.77
2022-08-07T10:12:04.690Z,100663.42
2022-08-07T10:13:55.237Z,100655.80
2022-08-07T10:14:39.278Z,100660.27
2022-08-07T10:16:14.871Z,100663.56
2022-08-07T10:18:00.940Z,100655.64
2022-08-07T10:19:05.332Z,100654.13
2022-08-07T10:20:30.491Z,100646.21
2022-08-07T10:22:15.952Z,100645.53
2022-08-07T10:23:09.769Z,100638.43
2022-08-07T10:24:25.440Z,100638.56
2022-08-07T10:25:56.531Z,100642.34
2022-08-07T10:27:46.297Z,100642.84
2022-08-07T10:28:49.649Z,100649.75
2022-08-07T10:30:06.570Z,100644.63
2022-08-07T10:31:38.795Z,100645.45
2022-08-07T10:32:53.179Z,100641.48
2022-08-07T10:34:32.430Z,100649.59
2022-08-07T10:35:56.059Z,100641.63
2022-08-07T10:37:12.422Z,100646.09
2022-08-07T10:38:36.302Z,100637.33
2022-08-07T10:40:02.919Z,100643.42
2022-08-07T10:41:47.370Z,100641.93
2022-08-07T10:42:43.463Z,100641.23
2022-08-07T10:44:07.343Z,100636.64
2022-08-07T10:45:16.820Z,100643.22
2022-08-07T10:46:25.365Z,100651.45
2022-08-07T10:47:53.339Z,100645.97
2022-08-07T10:48:48.211Z,100641.67
2022-08-07T10:50:07.641Z,100638.99
2022-08-07T10:51:39.438Z,100643.13
2022-08-07T10:52:34.206Z,100635.98
2022-08-07T10:54:00.560Z,100636.48
2022-08-07T10:55:26.760Z,100632.51
2022-08-07T10:56:31.452Z,100636.97
2022-08-07T10:57:35.751Z,100634.95
2022-08-07T10:59:21.154Z,100641.06
2022-08-07T11:00:36.715Z,100643.55
2022-08-07T11:01:51.813Z,100639.58
2022-08-07T11:03:10.985Z,100637.23
2022-08-07T11:04:52.722Z,100636.56
2022-08-07T11:06:18.485Z,100635.04
2022-08-07T11:07:58.953Z,100636.36
2022-08-07T11:08:55.554Z,100643.63
2022-08-07T11:10:09.922Z,100645.61
2022-08-07T11:11:20.825Z,100639.63
2022-08-07T11:12:38.226Z,100639.30
2022-08-07T11:14:44.399Z,100638.62
2022-08-07T11:15:00.101Z,100636.64
2022-08-07T11:16:13.483Z,100635.12
2022-08-07T11:17:43.066Z,100633.96
2022-08-07T11:18:50.871Z,100638.88
2022-08-07T11:19:56.780Z,100645.03
2022-08-07T11:21:11.886Z,100632.28
2022-08-07T11:22:32.317Z,100643.99
2022-08-07T11:23:45.434Z,100643.33
2022-08-07T11:25:21.641Z,100634.19
2022-08-07T11:26:45.082Z,100638.77
2022-08-07T11:28:25.533Z,100624.50
2022-08-07T11:29:53.854Z,100631.44
2022-08-07T11:31:08.870Z,100627.09
2022-08-07T11:32:25.859Z,100625.94
2022-08-07T11:33:54.027Z,100630.40
2022-08-07T11:35:02.598Z,100623.95
2022-08-07T11:36:31.019Z,100624.77
2022-08-07T11:37:38.463Z,100626.76
2022-08-07T11:38:56.661Z,100625.11
2022-08-07T11:40:11.183Z,100624.28
2022-08-07T11:41:28.280Z,100622.66
2022-08-07T11:42:33.891Z,100617.38
2022-08-07T11:44:10.916Z,100620.53
2022-08-07T11:45:03.872Z,100623.67
2022-08-07T11:46:28.117Z,100622.84
2022-08-07T11:47:55.924Z,100623.67
2022-08-07T11:49:50.288Z,100620.03
2022-08-07T11:50:32.647Z,100621.69
2022-08-07T11:51:46.600Z,100618.05
2022-08-07T11:53:21.783Z,100618.88
2022-08-07T11:54:37.530Z,100620.53
2022-08-07T11:56:13.983Z,100609.27
2022-08-07T11:57:12.632Z,100601.66
2022-08-07T11:58:20.306Z,100606.95
2022-08-07T12:00:10.296Z,100603.65
2022-08-07T12:01:06.974Z,100612.09
2022-08-07T12:02:30.651Z,100610.10
2022-08-07T12:05:40.981Z,100610.49
2022-08-07T12:07:01.118Z,100612.09
2022-08-07T12:08:25.725Z,100607.63
2022-08-07T12:09:39.714Z,100605.19
2022-08-07T12:11:20.307Z,100606.68
2022-08-07T12:12:13.835Z,100610.53
2022-08-07T12:13:47.772Z,100609.58
2022-08-07T12:14:56.383Z,100609.42
2022-08-07T12:16:06.134Z,100602.03
2022-08-07T12:17:09.857Z,100605.84
2022-08-07T12:18:45.116Z,100603.70
2022-08-07T12:20:03.266Z,100609.20
2022-08-07T12:21:09.470Z,100597.01
2022-08-07T12:22:39.372Z,100601.68
2022-08-07T12:24:07.435Z,100604.66
2022-08-07T12:26:02.953Z,100596.44
2022-08-07T12:26:49.192Z,100603.92
2022-08-07T12:28:08.741Z,100597.21
2022-08-07T12:29:37.969Z,100595.77
2022-08-07T12:30:30.949Z,100598.77
2022-08-07T12:32:02.608Z,100594.52
2022-08-07T12:32:54.002Z,100602.74
2022-08-07T12:34:01.876Z,100600.96
2022-08-07T12:35:08.257Z,100604.92
2022-08-07T12:36:13.426Z,100603.63
2022-08-07T12:37:28.258Z,100606.45
2022-08-07T12:38:36.794Z,100605.62
2022-08-07T12:39:43.000Z,100606.45
2022-08-07T12:40:47.109Z,100600.96
2022-08-07T12:41:52.989Z,100602.28
2022-08-07T12:43:00.858Z,100599.61
2022-08-07T12:44:12.916Z,100594.97
2022-08-07T12:45:23.204Z,100602.05
2022-08-07T12:46:51.576Z,100595.06
2022-08-07T12:48:03.685Z,100595.36
2022-08-07T12:49:44.802Z,100587.18
2022-08-07T12:50:48.641Z,100588.30
2022-08-07T12:52:14.332Z,100584.94
2022-08-07T12:53:27.636Z,100584.73
2022-08-07T12:54:39.038Z,100580.06
2022-08-07T12:56:02.013Z,100581.04
2022-08-07T12:56:54.985Z,100578.22
2022-08-07T12:58:01.933Z,100578.72
2022-08-07T12:59:08.663Z,100577.55
2022-08-07T13:00:20.878Z,100579.20
2022-08-07T13:01:39.851Z,100582.02
2022-08-07T13:03:06.888Z,100585.16
2022-08-07T13:04:32.641Z,100579.02
2022-08-07T13:06:02.554Z,100586.17
2022-08-07T13:07:05.951Z,100580.42
2022-08-07T13:08:37.454Z,100577.13
2022-08-07T13:10:19.500Z,100583.78
2022-08-07T13:11:16.339Z,100589.94
2022-08-07T13:12:30.567Z,100589.81
2022-08-07T13:15:23.494Z,100588.63
2022-08-07T13:16:50.925Z,100588.91
2022-08-07T13:18:01.734Z,100590.07
2022-08-07T13:19:11.354Z,100588.78
2022-08-07T13:20:37.780Z,100581.52
2022-08-07T13:22:04.004Z,100588.42
2022-08-07T13:24:01.952Z,100585.56
2022-08-07T13:24:30.543Z,100579.04
2022-08-07T13:25:41.750Z,100577.45
2022-08-07T13:27:06.063Z,100576.39
2022-08-07T13:28:18.598Z,100576.45
2022-08-07T13:29:24.562Z,100580.59
2022-08-07T13:32:32.647Z,100574.69
2022-08-07T13:34:31.027Z,100571.22
2022-08-07T13:34:48.565Z,100570.90
2022-08-07T13:35:59.674Z,100570.91
2022-08-07T13:37:20.123Z,100569.63